createdAt,value
2022-09-12T00:02:42.316Z,85.57
2022-09-12T00:05:46.257Z,85.63
2022-09-12T00:08:49.216Z,85.54
2022-09-12T00:11:53.278Z,85.26
2022-09-12T00:14:55.971Z,85.37
2022-09-12T00:17:58.632Z,85.38
2022-09-12T00:21:04.661Z,85.72
2022-09-12T00:24:07.802Z,85.69
2022-09-12T00:27:11.850Z,85.27
2022-09-12T00:30:15.049Z,85.49
2022-09-12T00:33:19.320Z,85.52
2022-09-12T00:36:25.016Z,86.82
2022-09-12T00:39:27.716Z,87.58
2022-09-12T00:42:31.789Z,88.20
2022-09-12T00:45:34.638Z,88.76
2022-09-12T00:48:43.185Z,89.85
2022-09-12T00:51:51.082Z,89.82
2022-09-12T00:54:58.783Z,90.37
2022-09-12T00:58:08.439Z,89.96
2022-09-12T01:01:11.235Z,89.00
2022-09-12T01:04:15.127Z,88.63
2022-09-12T01:07:17.892Z,88.34
2022-09-12T01:10:21.549Z,88.06
2022-09-12T01:13:25.735Z,88.00
2022-09-12T01:16:29.100Z,87.43
2022-09-12T01:20:01.475Z,86.93
2022-09-12T01:23:31.769Z,87.02
2022-09-12T01:27:00.087Z,86.84
2022-09-12T01:30:24.865Z,86.65
2022-09-12T01:33:42.602Z,86.87
2022-09-12T01:36:53.331Z,87.68
2022-09-12T01:40:04.914Z,88.00
2022-09-12T01:43:19.283Z,88.15
2022-09-12T01:46:25.786Z,88.76
2022-09-12T01:49:37.453Z,88.81
2022-09-12T01:52:46.036Z,88.88
2022-09-12T01:55:53.663Z,89.14
2022-09-12T01:59:02.563Z,89.83
2022-09-12T02:02:10.493Z,90.21
2022-09-12T02:05:20.814Z,90.35
2022-09-12T02:08:31.530Z,90.58
2022-09-12T02:11:38.702Z,90.21
2022-09-12T02:14:46.228Z,89.53
2022-09-12T02:17:51.909Z,88.86
2022-09-12T02:20:57.939Z,88.11
2022-09-12T02:24:03.788Z,87.82
2022-09-12T02:27:11.894Z,87.15
2022-09-12T02:30:16.602Z,87.02
2022-09-12T02:33:26.715Z,86.64
2022-09-12T02:36:40.386Z,86.87
2022-09-12T02:39:45.519Z,86.60
2022-09-12T02:42:48.495Z,86.83
2022-09-12T02:45:51.811Z,86.53
2022-09-12T02:48:55.871Z,86.24
2022-09-12T02:52:01.018Z,86.01
2022-09-12T02:55:06.973Z,86.10
2022-09-12T02:58:14.138Z,85.88
2022-09-12T03:01:37.270Z,85.71
2022-09-12T03:05:02.847Z,85.73
2022-09-12T03:08:37.553Z,85.62
2022-09-12T03:11:57.243Z,85.44
2022-09-12T03:15:13.859Z,85.49
2022-09-12T03:18:27.368Z,85.82
2022-09-12T03:21:35.014Z,86.70
2022-09-12T03:24:47.865Z,87.91
2022-09-12T03:27:57.492Z,88.33
2022-09-12T03:31:00.288Z,88.60
2022-09-12T03:34:03.334Z,89.30
2022-09-12T03:37:06.703Z,90.54
2022-09-12T03:40:12.894Z,91.61
2022-09-12T03:43:16.405Z,91.61
2022-09-12T03:46:19.946Z,93.17
2022-09-12T03:49:23.324Z,93.79
2022-09-12T03:52:29.606Z,94.13
2022-09-12T03:55:34.121Z,94.79
2022-09-12T03:58:38.054Z,95.38
2022-09-12T04:01:41.982Z,96.01
2022-09-12T04:04:49.161Z,95.54
2022-09-12T04:07:54.638Z,94.73
2022-09-12T04:11:05.571Z,94.36
2022-09-12T04:14:09.166Z,93.64
2022-09-12T04:17:12.821Z,92.78
2022-09-12T04:20:15.976Z,92.32
2022-09-12T04:23:19.559Z,91.37
2022-09-12T04:26:24.273Z,92.05
2022-09-12T04:29:27.943Z,91.81
2022-09-12T04:32:31.854Z,92.21
2022-09-12T04:35:36.307Z,92.64
2022-09-12T04:38:39.742Z,93.74
2022-09-12T04:41:43.830Z,94.44
2022-09-12T04:44:46.545Z,95.02
2022-09-12T04:47:49.737Z,95.13
2022-09-12T04:50:52.710Z,94.45
2022-09-12T04:53:58.451Z,94.54
2022-09-12T04:57:02.608Z,94.65
2022-09-12T05:00:07.599Z,94.99
2022-09-12T05:03:10.280Z,95.50
2022-09-12T05:06:15.425Z,96.14
2022-09-12T05:09:18.101Z,96.01
2022-09-12T05:12:23.007Z,95.45
2022-09-12T05:15:38.835Z,95.69
2022-09-12T05:18:48.564Z,95.35
2022-09-12T05:21:58.464Z,95.58
2022-09-12T05:25:08.582Z,95.46
2022-09-12T05:28:14.750Z,95.67
2022-09-12T05:31:20.231Z,95.73
2022-09-12T05:34:28.357Z,95.98
2022-09-12T05:37:31.479Z,96.26
2022-09-12T05:40:35.896Z,96.16
2022-09-12T05:43:41.807Z,96.13
2022-09-12T05:46:48.677Z,96.25
2022-09-12T05:49:52.663Z,96.23
2022-09-12T05:52:56.255Z,96.48
2022-09-12T05:56:07.000Z,96.51
2022-09-12T05:59:13.170Z,95.99
2022-09-12T06:02:16.084Z,96.69
2022-09-12T06:05:18.850Z,96.84
2022-09-12T06:08:21.735Z,97.13
2022-09-12T06:11:28.959Z,97.44
2022-09-12T06:14:33.486Z,97.03
2022-09-12T06:17:36.275Z,97.45
2022-09-12T06:20:38.972Z,97.11
2022-09-12T06:23:42.146Z,96.92
2022-09-12T06:26:45.319Z,97.02
2022-09-12T06:29:49.386Z,96.17
2022-09-12T06:32:52.029Z,95.54
2022-09-12T06:35:54.766Z,95.54
2022-09-12T06:38:59.432Z,94.90
2022-09-12T06:42:02.123Z,94.65
2022-09-12T06:45:07.422Z,94.50
2022-09-12T06:48:10.068Z,93.60
2022-09-12T06:51:15.285Z,93.81
2022-09-12T06:54:20.053Z,94.10
2022-09-12T06:57:25.075Z,94.20
2022-09-12T07:00:30.714Z,94.05
2022-09-12T07:03:34.413Z,92.71
2022-09-12T07:06:38.971Z,91.96
2022-09-12T07:09:41.666Z,92.03
2022-09-12T07:12:44.362Z,91.38
2022-09-12T07:15:49.200Z,90.67
2022-09-12T07:18:53.366Z,90.98
2022-09-12T07:21:58.666Z,91.04
2022-09-12T07:25:02.149Z,90.95
2022-09-12T07:28:05.154Z,91.17
2022-09-12T07:31:11.368Z,91.23
2022-09-12T07:34:14.491Z,90.73
2022-09-12T07:37:17.849Z,90.53
2022-09-12T07:40:20.681Z,90.22
2022-09-12T07:43:24.157Z,89.95
2022-09-12T07:46:30.191Z,88.46
2022-09-12T07:49:32.961Z,87.97
2022-09-12T07:52:35.792Z,87.71
2022-09-12T07:55:38.688Z,87.75
2022-09-12T07:58:43.239Z,88.23
2022-09-12T08:01:47.739Z,87.71
2022-09-12T08:04:51.403Z,86.48
2022-09-12T08:07:57.678Z,86.51
2022-09-12T08:11:01.213Z,85.63
2022-09-12T08:14:05.760Z,84.24
2022-09-12T08:17:10.367Z,84.15
2022-09-12T08:20:13.882Z,83.78
2022-09-12T08:23:18.199Z,83.55
2022-09-12T08:26:21.423Z,83.14
2022-09-12T08:29:26.797Z,81.15
2022-09-12T08:32:30.839Z,80.74
2022-09-12T08:35:33.535Z,81.51
2022-09-12T08:38:37.721Z,81.20
2022-09-12T08:41:42.385Z,81.07
2022-09-12T08:44:57.283Z,82.12
2022-09-12T08:48:04.982Z,82.02
2022-09-12T08:51:13.530Z,82.68
2022-09-12T08:54:22.594Z,83.21
2022-09-12T08:57:25.861Z,84.21
2022-09-12T09:00:40.448Z,84.17
2022-09-12T09:04:03.117Z,84.11
2022-09-12T09:07:46.342Z,83.28
2022-09-12T09:10:53.118Z,83.54
2022-09-12T09:14:23.401Z,82.90
2022-09-12T09:17:32.473Z,82.47
2022-09-12T09:20:44.028Z,82.61
2022-09-12T09:23:51.177Z,82.96
2022-09-12T09:26:59.343Z,82.68
2022-09-12T09:30:03.309Z,81.42
2022-09-12T09:33:12.574Z,81.10
2022-09-12T09:36:22.809Z,80.23
2022-09-12T09:39:38.300Z,80.62
2022-09-12T09:42:48.821Z,79.55
2022-09-12T09:45:53.367Z,79.87
2022-09-12T09:48:59.291Z,79.34
2022-09-12T09:52:06.498Z,79.22
2022-09-12T09:55:17.832Z,79.11
2022-09-12T09:58:30.303Z,76.80
2022-09-12T10:01:33.440Z,76.22
2022-09-12T10:04:41.568Z,75.80
2022-09-12T10:07:53.115Z,74.14
2022-09-12T10:11:02.869Z,74.99
2022-09-12T10:14:05.597Z,75.77
2022-09-12T10:17:33.760Z,74.62
2022-09-12T10:20:40.238Z,73.40
2022-09-12T10:23:45.218Z,72.43
2022-09-12T10:26:56.421Z,70.87
2022-09-12T10:30:04.161Z,69.27
2022-09-12T10:33:11.995Z,68.83
2022-09-12T10:36:15.978Z,69.22
2022-09-12T10:39:24.157Z,68.99
2022-09-12T10:42:46.152Z,68.88
2022-09-12T10:45:49.069Z,68.23
2022-09-12T10:48:54.822Z,67.91
2022-09-12T10:52:00.311Z,68.35
2022-09-12T10:55:04.523Z,66.67
2022-09-12T10:58:33.471Z,66.81
2022-09-12T11:01:42.850Z,66.65
2022-09-12T11:04:56.946Z,64.21
2022-09-12T11:08:07.712Z,64.40
2022-09-12T11:11:24.829Z,63.40
2022-09-12T11:14:40.325Z,63.12
2022-09-12T11:17:52.662Z,61.68
2022-09-12T11:21:11.110Z,60.21
2022-09-12T11:24:30.296Z,59.22
2022-09-12T11:27:47.753Z,59.37
2022-09-12T11:31:06.273Z,58.39
2022-09-12T11:34:10.640Z,57.63
2022-09-12T11:37:34.618Z,57.68
2022-09-12T11:40:44.936Z,57.64
2022-09-12T11:43:58.569Z,57.96
2022-09-12T11:47:06.583Z,54.89
2022-09-12T11:50:21.541Z,56.21
2022-09-12T11:53:30.753Z,55.89
2022-09-12T11:56:38.157Z,56.21
2022-09-12T11:59:47.563Z,54.16
2022-09-12T12:03:02.243Z,53.51
2022-09-12T12:06:12.843Z,53.29
2022-09-12T12:09:16.360Z,53.15
2022-09-12T12:12:24.882Z,52.57
2022-09-12T12:15:30.827Z,52.43
2022-09-12T12:18:37.962Z,53.18
2022-09-12T12:21:42.847Z,53.03
2022-09-12T12:25:06.413Z,50.85
2022-09-12T12:28:09.617Z,52.46
2022-09-12T12:31:14.139Z,52.03
2022-09-12T12:34:29.444Z,52.04
2022-09-12T12:37:53.878Z,52.21
2022-09-12T12:41:39.734Z,51.95
2022-09-12T12:44:51.431Z,52.21
2022-09-12T12:47:58.587Z,52.66
2022-09-12T12:51:31.570Z,51.86
2022-09-12T12:54:53.649Z,50.32
2022-09-12T12:57:59.287Z,50.28
2022-09-12T13:01:13.402Z,49.19
2022-09-12T13:04:21.022Z,50.20
2022-09-12T13:07:31.530Z,49.18
2022-09-12T13:10:35.378Z,48.57
2022-09-12T13:13:41.879Z,47.25
2022-09-12T13:16:55.638Z,46.36
2022-09-12T13:20:31.207Z,45.93
2022-09-12T13:23:35.155Z,46.82
2022-09-12T13:26:47.237Z,47.45
2022-09-12T13:29:50.337Z,45.84
2022-09-12T13:32:54.036Z,45.81
2022-09-12T13:36:18.979Z,45.91
2022-09-12T13:39:27.499Z,45.69
2022-09-12T13:42:40.959Z,45.73
2022-09-12T13:45:47.095Z,45.44
2022-09-12T13:48:50.029Z,45.54
2022-09-12T13:52:02.788Z,45.13
2022-09-12T13:55:09.565Z,44.87
2022-09-12T13:58:20.338Z,45.08
2022-09-12T14:01:24.631Z,44.35
2022-09-12T14:04:45.771Z,43.69
2022-09-12T14:07:56.429Z,44.34
2022-09-12T14:11:00.212Z,43.74
2022-09-12T14:14:07.462Z,43.90
2022-09-12T14:17:18.935Z,44.52
2022-09-12T14:20:32.062Z,44.08
2022-09-12T14:23:39.414Z,44.06
2022-09-12T14:26:45.026Z,43.37
2022-09-12T14:29:48.455Z,43.47
2022-09-12T14:33:05.582Z,43.75
2022-09-12T14:36:12.897Z,43.43
2022-09-12T14:39:29.532Z,43.42
2022-09-12T14:42:33.300Z,42.15
2022-09-12T14:45:36.011Z,42.07
2022-09-12T14:48:45.623Z,42.21
2022-09-12T14:51:56.678Z,42.19
2022-09-12T14:55:02.685Z,41.51
2022-09-12T14:58:16.381Z,40.79
2022-09-12T15:01:27.511Z,41.30
2022-09-12T15:04:40.595Z,41.34
2022-09-12T15:07:46.514Z,40.86
2022-09-12T15:10:51.138Z,40.95
2022-09-12T15:13:54.588Z,41.29
2022-09-12T15:16:57.407Z,41.38
2022-09-12T15:20:00.040Z,41.50
2022-09-12T15:23:03.253Z,41.38
2022-09-12T15:26:08.623Z,41.18
2022-09-12T15:29:11.315Z,40.88
2022-09-12T15:32:24.213Z,41.18
2022-09-12T15:35:29.423Z,41.42
2022-09-12T15:38:32.091Z,41.40
2022-09-12T15:41:37.931Z,40.69
2022-09-12T15:44:40.850Z,41.05
2022-09-12T15:47:43.692Z,41.60
2022-09-12T15:50:46.653Z,41.55
2022-09-12T15:53:51.381Z,41.23
2022-09-12T15:56:55.398Z,41.31
2022-09-12T15:59:58.053Z,41.72
2022-09-12T16:03:01.020Z,42.20
2022-09-12T16:06:04.846Z,42.54
2022-09-12T16:09:07.730Z,42.76
2022-09-12T16:12:11.864Z,42.91
2022-09-12T16:15:17.743Z,42.93
2022-09-12T16:18:20.423Z,43.15
2022-09-12T16:21:24.739Z,43.40
2022-09-12T16:24:28.501Z,43.52
2022-09-12T16:27:33.479Z,43.72
2022-09-12T16:30:36.629Z,43.97
2022-09-12T16:33:40.463Z,44.37
2022-09-12T16:36:45.182Z,45.22
2022-09-12T16:39:49.002Z,46.07
2022-09-12T16:42:53.139Z,47.05
2022-09-12T16:46:03.180Z,48.36
2022-09-12T16:49:07.609Z,49.67
2022-09-12T16:52:11.438Z,50.96
2022-09-12T16:55:14.730Z,51.30
2022-09-12T16:58:18.846Z,51.92
2022-09-12T17:01:23.880Z,52.68
2022-09-12T17:04:26.890Z,53.33
2022-09-12T17:07:29.600Z,53.89
2022-09-12T17:10:32.959Z,54.36
2022-09-12T17:14:02.653Z,54.77
2022-09-12T17:16:59.728Z,55.32
2022-09-12T17:20:02.915Z,55.93
2022-09-12T17:23:09.631Z,56.02
2022-09-12T17:26:13.638Z,57.02
2022-09-12T17:29:18.341Z,58.19
2022-09-12T17:32:21.144Z,58.99
2022-09-12T17:35:23.895Z,59.44
2022-09-12T17:38:27.721Z,60.12
2022-09-12T17:41:32.972Z,60.97
2022-09-12T17:44:37.094Z,61.47
2022-09-12T17:47:39.897Z,62.19
2022-09-12T17:50:43.445Z,62.98
2022-09-12T17:53:46.286Z,63.25
2022-09-12T17:56:51.261Z,63.66
2022-09-12T17:59:55.363Z,65.64
2022-09-12T18:02:58.074Z,65.56
2022-09-12T18:06:00.976Z,66.41
2022-09-12T18:09:06.083Z,67.03
2022-09-12T18:12:09.299Z,68.60
2022-09-12T18:15:14.267Z,70.78
2022-09-12T18:18:16.989Z,70.84
2022-09-12T18:21:20.588Z,71.67
2022-09-12T18:24:23.778Z,71.39
2022-09-12T18:27:26.851Z,71.41
2022-09-12T18:30:32.818Z,72.13
2022-09-12T18:33:35.479Z,72.59
2022-09-12T18:36:38.195Z,72.69
2022-09-12T18:39:40.943Z,72.49
2022-09-12T18:42:43.787Z,73.08
2022-09-12T18:45:48.138Z,73.59
2022-09-12T18:48:51.306Z,73.78
2022-09-12T18:51:54.371Z,74.42
2022-09-12T18:54:57.260Z,74.53
2022-09-12T18:58:00.568Z,74.97
2022-09-12T19:01:12.351Z,75.13
2022-09-12T19:04:18.088Z,75.40
2022-09-12T19:07:22.796Z,75.76
2022-09-12T19:10:27.121Z,76.01
2022-09-12T19:13:30.548Z,76.45
2022-09-12T19:16:36.441Z,76.48
2022-09-12T19:19:40.697Z,76.17
2022-09-12T19:22:43.891Z,76.13
2022-09-12T19:25:56.666Z,75.87
2022-09-12T19:29:00.971Z,76.01
2022-09-12T19:32:05.889Z,76.04
2022-09-12T19:35:12.937Z,76.25
2022-09-12T19:38:15.949Z,76.63
2022-09-12T19:41:20.379Z,76.80
2022-09-12T19:44:23.756Z,76.78
2022-09-12T19:47:27.875Z,77.50
2022-09-12T19:50:33.236Z,77.60
2022-09-12T19:53:37.502Z,77.79
2022-09-12T19:56:40.463Z,77.79
2022-09-12T19:59:43.150Z,77.79
2022-09-12T20:02:52.539Z,77.67
2022-09-12T20:05:55.219Z,78.18
2022-09-12T20:08:59.367Z,78.03
2022-09-12T20:12:02.554Z,78.22
2022-09-12T20:15:08.350Z,77.99
2022-09-12T20:18:12.524Z,78.25
2022-09-12T20:21:17.828Z,78.45
2022-09-12T20:24:20.728Z,78.62
2022-09-12T20:27:23.784Z,78.95
2022-09-12T20:30:26.675Z,79.25
2022-09-12T20:33:32.007Z,79.51
2022-09-12T20:36:35.485Z,79.51
2022-09-12T20:39:38.220Z,79.41
2022-09-12T20:42:40.943Z,79.85
2022-09-12T20:45:43.815Z,79.73
2022-09-12T20:48:47.985Z,79.88
2022-09-12T20:51:51.158Z,80.18
2022-09-12T20:54:53.866Z,80.31
2022-09-12T20:57:56.843Z,80.35
2022-09-12T21:01:00.022Z,80.61
2022-09-12T21:04:10.771Z,80.65
2022-09-12T21:07:17.066Z,80.76
2022-09-12T21:10:19.952Z,81.17
2022-09-12T21:13:23.056Z,81.44
2022-09-12T21:16:26.336Z,81.81
2022-09-12T21:19:30.703Z,82.17
2022-09-12T21:22:36.934Z,82.38
2022-09-12T21:25:39.750Z,82.48
2022-09-12T21:28:42.552Z,82.32
2022-09-12T21:31:45.366Z,82.49
2022-09-12T21:34:49.523Z,82.50
2022-09-12T21:37:52.906Z,82.56
2022-09-12T21:41:04.306Z,82.59
2022-09-12T21:44:07.463Z,82.87
2022-09-12T21:47:10.206Z,83.13
2022-09-12T21:50:14.723Z,84.04
2022-09-12T21:53:17.536Z,84.48
2022-09-12T21:56:20.918Z,84.50
2022-09-12T21:59:23.631Z,84.75
2022-09-12T22:02:27.260Z,84.90
2022-09-12T22:05:32.719Z,85.09
2022-09-12T22:08:37.251Z,85.04
2022-09-12T22:11:39.969Z,84.91
2022-09-12T22:14:42.686Z,85.07
2022-09-12T22:17:45.349Z,84.96
2022-09-12T22:20:49.437Z,85.10
2022-09-12T22:24:09.981Z,85.30
2022-09-12T22:27:12.759Z,85.08
2022-09-12T22:30:15.452Z,85.38
2022-09-12T22:33:18.383Z,85.44
2022-09-12T22:36:22.844Z,85.33
2022-09-12T22:39:25.536Z,85.24
2022-09-12T22:42:30.071Z,85.43
2022-09-12T22:45:32.739Z,85.51
2022-09-12T22:48:35.615Z,85.52
2022-09-12T22:51:39.984Z,85.53
2022-09-12T22:54:42.774Z,85.67
2022-09-12T22:57:45.466Z,85.53
2022-09-12T23:00:50.117Z,85.70
2022-09-12T23:03:52.941Z,85.70
2022-09-12T23:06:57.536Z,85.89
2022-09-12T23:10:00.619Z,85.92
2022-09-12T23:13:03.541Z,86.63
2022-09-12T23:16:09.067Z,86.84
2022-09-12T23:19:12.143Z,87.27
2022-09-12T23:22:16.158Z,87.36
2022-09-12T23:25:22.899Z,87.75
2022-09-12T23:28:25.565Z,87.89
2022-09-12T23:31:31.215Z,87.85
2022-09-12T23:34:34.105Z,88.01
2022-09-12T23:37:38.483Z,88.64
2022-09-12T23:40:41.224Z,88.78
2022-09-12T23:43:45.508Z,88.99
2022-09-12T23:46:48.447Z,88.93
2022-09-12T23:49:51.163Z,88.78
2022-09-12T23:52:55.447Z,89.20
2022-09-12T23:55:58.628Z,90.20
2022-09-12T23:59:01.479Z,90.00
